Terminal Aerodrome Forecast
Issued by NWS Tampa Bay Area, FL

Home | Current Version | Previous Version | Text Only | Print | Product List | Glossary On
Versions: 1 2 3 4 5 6 7 8 9 10 11 12 13
191
FTUS42 KTBW 200211 AAA
TAFFMY
TAF AMD
KFMY 200211Z 2002/2024 32009KT P6SM SCT010 BKN060
      TEMPO 2002/2004 BKN010
     FM200500 02012G17KT P6SM FEW070 SCT250
     FM201600 06012G18KT P6SM FEW035 SCT250
     FM202100 08013G19KT P6SM BKN035=

USA.gov is the U.S. government's official web portal to all federal, state and local government web resources and services.